Terminal Aerodrome Forecast
Issued by NWS Cleveland, OH

Home | Current Version | Previous Version | Graphics & Text | Print | Product List | Glossary Off
Versions: 1 2 3 4 5 6 7 8 9 10 11 12 13

000
FTUS41 KCLE 251100
TAFMFD
TAF
KMFD 251137Z 2512/2612 18012KT P6SM SCT100 BKN250
     FM251400 20015G25KT P6SM SCT060 BKN120
     FM251800 20020G28KT P6SM VCSH BKN050 OVC120
      TEMPO 2519/2521 4SM -TSRA BKN040CB OVC080
     FM252200 21015G25KT P6SM SCT050 BKN200
     FM260100 20012KT P6SM SCT120 BKN200=

USA.gov is the U.S. government's official web portal to all federal, state and local government web resources and services.